createdAt,value
2023-04-03T00:00:36.104Z,13.15
2023-04-03T00:03:03.258Z,14.27
2023-04-03T00:05:30.270Z,11.10
2023-04-03T00:07:57.409Z,14.30
2023-04-03T00:10:24.446Z,11.50
2023-04-03T00:12:51.326Z,10.65
2023-04-03T00:15:18.247Z,17.55
2023-04-03T00:17:45.238Z,13.93
2023-04-03T00:20:12.228Z,13.07
2023-04-03T00:22:39.131Z,23.13
2023-04-03T00:25:06.722Z,17.52
2023-04-03T00:27:33.663Z,16.55
2023-04-03T00:30:00.551Z,13.75
2023-04-03T00:32:27.463Z,11.52
2023-04-03T00:34:54.362Z,20.60
2023-04-03T00:37:21.631Z,10.05
2023-04-03T00:39:48.489Z,10.05
2023-04-03T00:42:15.451Z,12.00
2023-04-03T00:44:42.198Z,14.48
2023-04-03T00:47:12.652Z,14.82
2023-04-03T00:49:40.683Z,10.35
2023-04-03T00:52:14.851Z,17.02
2023-04-03T00:54:43.432Z,14.25
2023-04-03T00:57:12.117Z,18.85
2023-04-03T00:59:52.110Z,18.02
2023-04-03T01:02:19.672Z,16.90
2023-04-03T01:04:48.213Z,11.15
2023-04-03T01:07:27.588Z,10.07
2023-04-03T01:10:00.392Z,14.10
2023-04-03T01:12:31.065Z,12.23
2023-04-03T01:15:01.401Z,13.63
2023-04-03T01:17:49.532Z,11.77
2023-04-03T01:20:37.911Z,9.20
2023-04-03T01:23:11.093Z,10.73
2023-04-03T01:25:41.094Z,11.00
2023-04-03T01:28:12.669Z,14.07
2023-04-03T01:30:54.093Z,13.63
2023-04-03T01:33:21.613Z,13.18
2023-04-03T01:35:48.804Z,13.52
2023-04-03T01:38:16.039Z,9.48
2023-04-03T01:40:43.311Z,9.75
2023-04-03T01:43:11.063Z,10.35
2023-04-03T01:45:37.926Z,11.80
2023-04-03T01:48:05.536Z,10.05
2023-04-03T01:50:32.420Z,8.52
2023-04-03T01:52:59.420Z,10.60
2023-04-03T01:55:26.542Z,8.65
2023-04-03T01:57:53.746Z,8.13
2023-04-03T02:00:20.955Z,8.25
2023-04-03T02:02:47.914Z,9.63
2023-04-03T02:05:14.881Z,11.05
2023-04-03T02:07:41.951Z,8.50
2023-04-03T02:10:09.251Z,9.45
2023-04-03T02:12:36.162Z,9.73
2023-04-03T02:15:03.118Z,10.60
2023-04-03T02:17:30.236Z,8.02
2023-04-03T02:19:57.057Z,9.13
2023-04-03T02:22:24.339Z,6.18
2023-04-03T02:24:52.810Z,9.57
2023-04-03T02:27:21.010Z,7.40
2023-04-03T02:29:49.054Z,8.27
2023-04-03T02:32:16.116Z,9.13
2023-04-03T02:34:43.899Z,10.65
2023-04-03T02:37:12.603Z,7.22
2023-04-03T02:39:39.564Z,7.32
2023-04-03T02:42:06.575Z,9.07
2023-04-03T02:44:34.401Z,8.10
2023-04-03T02:47:01.358Z,7.13
2023-04-03T02:49:28.232Z,7.85
2023-04-03T02:51:55.179Z,5.97
2023-04-03T02:54:24.277Z,8.10
2023-04-03T02:56:55.067Z,9.25
2023-04-03T02:59:22.098Z,7.80
2023-04-03T03:01:49.885Z,6.43
2023-04-03T03:04:16.963Z,8.85
2023-04-03T03:06:44.925Z,9.63
2023-04-03T03:09:12.185Z,10.40
2023-04-03T03:11:39.034Z,8.80
2023-04-03T03:14:06.248Z,6.57
2023-04-03T03:16:33.912Z,9.75
2023-04-03T03:19:00.951Z,6.55
2023-04-03T03:21:27.974Z,6.43
2023-04-03T03:23:54.924Z,6.53
2023-04-03T03:26:21.954Z,9.73
2023-04-03T03:28:48.846Z,5.97
2023-04-03T03:31:16.330Z,6.07
2023-04-03T03:33:43.581Z,10.25
2023-04-03T03:36:11.743Z,6.68
2023-04-03T03:38:38.992Z,8.07
2023-04-03T03:41:06.586Z,11.05
2023-04-03T03:43:35.283Z,8.18
2023-04-03T03:46:03.862Z,7.65
2023-04-03T03:48:30.846Z,7.88
2023-04-03T03:50:57.783Z,6.18
2023-04-03T03:53:29.313Z,11.05
2023-04-03T03:56:00.309Z,7.80
2023-04-03T03:58:29.667Z,6.65
2023-04-03T04:00:56.608Z,6.75
2023-04-03T04:03:23.705Z,7.30
2023-04-03T04:05:52.025Z,5.80
2023-04-03T04:08:19.050Z,8.15
2023-04-03T04:10:46.524Z,10.07
2023-04-03T04:13:15.831Z,9.43
2023-04-03T04:15:43.938Z,9.90
2023-04-03T04:18:11.130Z,9.13
2023-04-03T04:20:38.713Z,8.75
2023-04-03T04:23:05.693Z,9.73
2023-04-03T04:25:33.708Z,8.02
2023-04-03T04:28:00.814Z,14.40
2023-04-03T04:30:28.475Z,7.43
2023-04-03T04:32:57.135Z,7.95
2023-04-03T04:35:24.808Z,7.90
2023-04-03T04:37:53.016Z,9.80
2023-04-03T04:40:21.023Z,8.77
2023-04-03T04:42:48.861Z,13.00
2023-04-03T04:45:16.444Z,9.13
2023-04-03T04:47:45.581Z,10.88
2023-04-03T04:50:12.673Z,11.95
2023-04-03T04:52:40.396Z,10.30
2023-04-03T04:55:08.917Z,10.82
2023-04-03T04:57:36.715Z,12.73
2023-04-03T05:00:04.837Z,10.30
2023-04-03T05:02:31.936Z,9.68
2023-04-03T05:04:59.406Z,10.82
2023-04-03T05:07:29.375Z,9.50
2023-04-03T05:09:57.732Z,9.73
2023-04-03T05:12:24.809Z,9.35
2023-04-03T05:14:56.821Z,14.18
2023-04-03T05:17:25.607Z,12.73
2023-04-03T05:19:56.268Z,16.65
2023-04-03T05:22:24.621Z,12.10
2023-04-03T05:24:54.790Z,12.27
2023-04-03T05:27:24.459Z,11.93
2023-04-03T05:29:54.792Z,12.65
2023-04-03T05:32:24.358Z,11.15
2023-04-03T05:35:00.186Z,10.98
2023-04-03T05:37:28.542Z,19.27
2023-04-03T05:39:56.602Z,13.52
2023-04-03T05:42:24.209Z,11.68
2023-04-03T05:44:51.237Z,13.65
2023-04-03T05:47:19.482Z,13.93
2023-04-03T05:49:46.871Z,13.75
2023-04-03T05:52:24.524Z,13.13
2023-04-03T05:54:52.942Z,10.35
2023-04-03T05:57:25.039Z,18.92
2023-04-03T05:59:52.469Z,16.10
2023-04-03T06:02:23.043Z,14.88
2023-04-03T06:04:52.151Z,16.08
2023-04-03T06:07:23.558Z,12.13
2023-04-03T06:09:54.834Z,13.15
2023-04-03T06:12:22.175Z,16.90
2023-04-03T06:14:49.661Z,11.85
2023-04-03T06:17:18.994Z,14.18
2023-04-03T06:19:46.615Z,14.32
2023-04-03T06:22:14.557Z,14.40
2023-04-03T06:24:41.680Z,13.43
2023-04-03T06:27:09.092Z,16.00
2023-04-03T06:29:36.367Z,16.95
2023-04-03T06:32:03.199Z,11.88
2023-04-03T06:34:30.129Z,12.43
2023-04-03T06:36:57.771Z,18.20
2023-04-03T06:39:24.759Z,12.45
2023-04-03T06:41:52.318Z,10.70
2023-04-03T06:44:27.097Z,16.98
2023-04-03T06:46:55.271Z,14.48
2023-04-03T06:49:22.648Z,14.45
2023-04-03T06:51:49.652Z,13.23
2023-04-03T06:54:16.470Z,12.15
2023-04-03T06:56:43.433Z,14.30
2023-04-03T06:59:11.386Z,11.00
2023-04-03T07:01:38.394Z,9.77
2023-04-03T07:04:05.312Z,16.58
2023-04-03T07:06:33.344Z,12.57
2023-04-03T07:09:01.017Z,11.80
2023-04-03T07:11:28.316Z,13.18
2023-04-03T07:13:55.171Z,12.20
2023-04-03T07:16:22.136Z,10.48
2023-04-03T07:18:49.219Z,11.95
2023-04-03T07:21:16.271Z,8.70
2023-04-03T07:23:43.250Z,12.75
2023-04-03T07:26:10.223Z,12.63
2023-04-03T07:28:37.794Z,12.38
2023-04-03T07:31:13.156Z,10.07
2023-04-03T07:33:41.367Z,13.13
2023-04-03T07:36:08.940Z,15.35
2023-04-03T07:38:37.067Z,10.43
2023-04-03T07:41:04.876Z,11.50
2023-04-03T07:43:31.773Z,9.93
2023-04-03T07:45:58.794Z,9.45
2023-04-03T07:48:27.337Z,9.20
2023-04-03T07:50:54.298Z,8.70
2023-04-03T07:53:21.697Z,7.32
2023-04-03T07:55:50.019Z,9.90
2023-04-03T07:58:19.520Z,8.38
2023-04-03T08:00:47.601Z,10.23
2023-04-03T08:03:17.659Z,7.97
2023-04-03T08:05:47.047Z,8.65
2023-04-03T08:08:18.624Z,7.30
2023-04-03T08:10:51.233Z,9.95
2023-04-03T08:13:19.088Z,8.60
2023-04-03T08:15:46.170Z,8.05
2023-04-03T08:18:14.029Z,7.88
2023-04-03T08:20:41.854Z,8.65
2023-04-03T08:23:09.888Z,7.50
2023-04-03T08:25:41.916Z,8.93
2023-04-03T08:28:10.048Z,6.03
2023-04-03T08:30:37.141Z,7.22
2023-04-03T08:33:05.150Z,8.75
2023-04-03T08:35:31.998Z,11.70
2023-04-03T08:37:59.258Z,6.50
2023-04-03T08:40:26.606Z,9.05
2023-04-03T08:43:12.319Z,7.85
2023-04-03T08:45:48.014Z,6.90
2023-04-03T08:48:21.171Z,7.80
2023-04-03T08:51:03.278Z,7.03
2023-04-03T08:53:35.048Z,11.75
2023-04-03T08:56:10.274Z,8.48
2023-04-03T08:58:51.514Z,11.60
2023-04-03T09:01:42.271Z,10.50
2023-04-03T09:04:20.705Z,7.70
2023-04-03T09:06:54.270Z,10.90
2023-04-03T09:09:23.919Z,7.80
2023-04-03T09:11:59.556Z,9.23
2023-04-03T09:14:55.949Z,10.68
2023-04-03T09:20:19.713Z,9.55
2023-04-03T09:22:52.357Z,9.48
2023-04-03T09:25:34.383Z,10.07
2023-04-03T09:28:10.682Z,8.38
2023-04-03T09:30:39.331Z,9.52
2023-04-03T09:33:07.996Z,7.15
2023-04-03T09:35:47.319Z,7.53
2023-04-03T09:38:19.056Z,6.25
2023-04-03T09:41:02.515Z,7.28
2023-04-03T09:43:33.649Z,10.27
2023-04-03T09:46:40.469Z,7.97
2023-04-03T09:49:12.684Z,6.90
2023-04-03T09:51:39.797Z,4.28
2023-04-03T09:54:40.899Z,7.50
2023-04-03T09:57:12.713Z,7.05
2023-04-03T10:00:00.648Z,6.20
2023-04-03T10:02:36.305Z,5.35
2023-04-03T10:05:12.052Z,5.00
2023-04-03T10:07:40.251Z,8.73
2023-04-03T10:10:21.291Z,9.20
2023-04-03T10:12:49.109Z,8.43
2023-04-03T10:15:19.770Z,7.00
2023-04-03T10:18:11.403Z,21.25
2023-04-03T10:20:48.030Z,9.85
2023-04-03T10:23:27.146Z,12.68
2023-04-03T10:25:55.163Z,11.85
2023-04-03T10:28:31.104Z,16.83
2023-04-03T10:31:06.289Z,9.75
2023-04-03T10:34:10.885Z,5.72
2023-04-03T10:36:55.623Z,8.20
2023-04-03T10:39:46.059Z,4.07
2023-04-03T10:42:38.689Z,5.03
2023-04-03T10:45:27.757Z,4.55
2023-04-03T10:47:57.757Z,8.82
2023-04-03T10:50:36.652Z,5.88
2023-04-03T10:53:36.001Z,6.45
2023-04-03T10:56:31.544Z,5.75
2023-04-03T10:59:19.601Z,6.63
2023-04-03T11:01:53.125Z,4.40
2023-04-03T11:04:22.147Z,4.25
2023-04-03T11:06:59.762Z,3.60
2023-04-03T11:09:34.578Z,4.85
2023-04-03T11:12:27.242Z,5.15
2023-04-03T11:14:57.189Z,5.10
2023-04-03T11:17:39.244Z,3.42
2023-04-03T11:20:11.815Z,6.53
2023-04-03T11:22:44.412Z,5.47
2023-04-03T11:25:11.668Z,4.93
2023-04-03T11:27:50.546Z,4.72
2023-04-03T11:30:31.293Z,4.93
2023-04-03T11:33:19.420Z,4.65
2023-04-03T11:35:56.799Z,4.05
2023-04-03T11:38:32.103Z,5.75
2023-04-03T11:40:59.786Z,4.97
2023-04-03T11:43:30.770Z,5.07
2023-04-03T11:46:02.292Z,4.05
2023-04-03T11:48:29.436Z,5.40
2023-04-03T11:50:57.733Z,3.60
2023-04-03T11:53:28.479Z,5.10
2023-04-03T11:56:01.303Z,6.93
2023-04-03T11:58:34.108Z,4.25
2023-04-03T12:01:07.885Z,2.47
2023-04-03T12:03:58.682Z,3.22
2023-04-03T12:06:28.655Z,4.03
2023-04-03T12:08:57.531Z,3.92
2023-04-03T12:11:32.010Z,4.45
2023-04-03T12:13:58.947Z,4.03
2023-04-03T12:16:48.432Z,3.55
2023-04-03T12:19:15.591Z,2.55
2023-04-03T12:21:48.992Z,3.45
2023-04-03T12:24:20.236Z,6.93
2023-04-03T12:26:49.391Z,5.75
2023-04-03T12:29:43.991Z,4.80
2023-04-03T12:32:27.421Z,4.00
2023-04-03T12:35:16.365Z,2.83
2023-04-03T12:38:09.271Z,3.58
2023-04-03T12:41:10.369Z,2.40
2023-04-03T12:44:01.985Z,3.38
2023-04-03T12:46:50.326Z,4.38
2023-04-03T12:49:40.753Z,2.33
2023-04-03T12:52:43.266Z,4.03
2023-04-03T12:55:18.493Z,3.33
2023-04-03T12:57:45.827Z,2.90
2023-04-03T13:00:31.582Z,2.80
2023-04-03T13:02:59.013Z,4.72
2023-04-03T13:05:27.486Z,2.08
2023-04-03T13:08:02.956Z,4.20
2023-04-03T13:13:00.121Z,3.58
2023-04-03T13:15:31.179Z,2.90
2023-04-03T13:17:58.634Z,6.20
2023-04-03T13:20:29.179Z,3.55
2023-04-03T13:22:56.286Z,4.85
2023-04-03T13:25:25.436Z,3.15
2023-04-03T13:27:57.587Z,2.53
2023-04-03T13:30:39.767Z,2.28
2023-04-03T13:33:21.582Z,7.68
2023-04-03T13:35:48.767Z,6.45
2023-04-03T13:38:18.580Z,10.52
2023-04-03T13:40:50.063Z,9.05
2023-04-03T13:43:26.110Z,4.28
2023-04-03T13:46:07.952Z,4.45
2023-04-03T13:48:44.593Z,15.55
2023-04-03T13:51:14.507Z,6.40
2023-04-03T13:54:22.939Z,10.23
2023-04-03T13:56:56.137Z,3.20
2023-04-03T13:59:27.965Z,4.72
2023-04-03T14:02:04.082Z,7.13
2023-04-03T14:04:34.006Z,3.58
2023-04-03T14:07:01.055Z,4.18
2023-04-03T14:09:29.087Z,4.72
2023-04-03T14:12:06.067Z,5.80
2023-04-03T14:14:36.570Z,3.22
2023-04-03T14:17:14.031Z,7.25
2023-04-03T14:19:54.074Z,6.70
2023-04-03T14:22:27.551Z,1.92
2023-04-03T14:24:54.779Z,3.25
2023-04-03T14:27:28.053Z,4.18
2023-04-03T14:29:56.938Z,3.17
2023-04-03T14:32:25.293Z,3.85
2023-04-03T14:34:53.338Z,4.10
2023-04-03T14:37:26.416Z,2.72
2023-04-03T14:39:54.720Z,2.20
2023-04-03T14:42:26.055Z,2.40
2023-04-03T14:44:53.733Z,5.28
2023-04-03T14:47:31.121Z,2.92
2023-04-03T14:50:07.715Z,3.75
2023-04-03T14:52:36.763Z,3.25
2023-04-03T14:55:07.103Z,3.67
2023-04-03T14:57:34.517Z,2.92
2023-04-03T15:00:03.198Z,2.85
2023-04-03T15:02:33.059Z,2.17
2023-04-03T15:05:01.789Z,2.03
2023-04-03T15:07:31.025Z,2.17
2023-04-03T15:09:58.030Z,3.00
2023-04-03T15:12:26.024Z,3.53
2023-04-03T15:15:00.820Z,2.42
2023-04-03T15:17:29.988Z,2.10
2023-04-03T15:19:57.008Z,2.20
2023-04-03T15:22:23.905Z,3.22
2023-04-03T15:24:50.800Z,4.18
2023-04-03T15:27:17.794Z,2.67
2023-04-03T15:29:45.939Z,2.63
2023-04-03T15:32:13.988Z,4.68
2023-04-03T15:34:41.641Z,2.33
2023-04-03T15:37:08.539Z,2.03
2023-04-03T15:39:35.532Z,0.80
2023-04-03T15:42:07.086Z,3.92
2023-04-03T15:44:37.409Z,4.95
2023-04-03T15:47:04.640Z,2.35
2023-04-03T15:49:34.379Z,2.00
2023-04-03T15:52:01.588Z,5.13
2023-04-03T15:54:30.513Z,3.80
2023-04-03T15:56:58.398Z,1.30
2023-04-03T15:59:25.593Z,1.30
2023-04-03T16:01:53.359Z,1.65
2023-04-03T16:04:21.818Z,5.68
2023-04-03T16:06:49.718Z,2.78
2023-04-03T16:09:16.729Z,1.45
2023-04-03T16:11:44.431Z,1.63
2023-04-03T16:14:11.478Z,1.90
2023-04-03T16:16:39.182Z,3.10
2023-04-03T16:19:06.390Z,4.32
2023-04-03T16:21:33.918Z,3.78
2023-04-03T16:24:02.090Z,2.42
2023-04-03T16:26:29.016Z,1.85
2023-04-03T16:28:56.051Z,1.52
2023-04-03T16:31:24.263Z,3.92
2023-04-03T16:33:51.158Z,1.33
2023-04-03T16:36:18.272Z,2.45
2023-04-03T16:38:45.406Z,2.05
2023-04-03T16:41:12.270Z,2.33
2023-04-03T16:43:39.237Z,5.05
2023-04-03T16:46:06.204Z,3.25
2023-04-03T16:48:33.058Z,2.22
2023-04-03T16:51:00.379Z,2.58
2023-04-03T16:53:28.094Z,2.38
2023-04-03T16:55:55.503Z,3.67
2023-04-03T16:58:23.962Z,3.30
2023-04-03T17:00:51.895Z,1.75
2023-04-03T17:03:18.867Z,3.10
2023-04-03T17:05:48.906Z,2.45
2023-04-03T17:08:17.968Z,2.75
2023-04-03T17:10:44.850Z,3.83
2023-04-03T17:13:11.887Z,1.95
2023-04-03T17:15:39.112Z,2.42
2023-04-03T17:18:06.561Z,4.50
2023-04-03T17:20:34.856Z,3.13
2023-04-03T17:23:01.948Z,3.80
2023-04-03T17:25:29.037Z,4.50
2023-04-03T17:27:56.873Z,3.03
2023-04-03T17:30:23.859Z,2.33
2023-04-03T17:32:50.945Z,4.10
2023-04-03T17:35:18.083Z,5.22
2023-04-03T17:37:44.976Z,5.32
2023-04-03T17:40:14.306Z,3.17
2023-04-03T17:42:41.544Z,2.20
2023-04-03T17:45:09.031Z,2.13
2023-04-03T17:47:36.075Z,2.63
2023-04-03T17:50:03.108Z,3.15
2023-04-03T17:52:31.850Z,5.15
2023-04-03T17:54:58.749Z,2.90
2023-04-03T17:57:25.809Z,3.45
2023-04-03T17:59:54.028Z,3.78
2023-04-03T18:02:21.132Z,5.57
2023-04-03T18:04:48.156Z,5.50
2023-04-03T18:07:15.034Z,8.75
2023-04-03T18:09:42.092Z,4.57
2023-04-03T18:12:10.072Z,4.70
2023-04-03T18:14:38.616Z,6.45
2023-04-03T18:17:05.908Z,7.47
2023-04-03T18:19:33.301Z,3.45
2023-04-03T18:22:07.073Z,5.75
2023-04-03T18:24:35.545Z,6.28
2023-04-03T18:27:07.371Z,5.95
2023-04-03T18:29:37.180Z,4.22
2023-04-03T18:32:05.414Z,6.32
2023-04-03T18:34:33.039Z,4.72
2023-04-03T18:37:00.304Z,8.70
2023-04-03T18:39:27.789Z,4.35
2023-04-03T18:41:57.869Z,8.82
2023-04-03T18:44:26.273Z,3.22
2023-04-03T18:46:54.001Z,5.03
2023-04-03T18:49:21.435Z,4.25
2023-04-03T18:51:48.562Z,4.13
2023-04-03T18:54:16.282Z,4.70
2023-04-03T18:56:43.152Z,4.82
2023-04-03T18:59:10.185Z,5.40
2023-04-03T19:01:37.461Z,4.63
2023-04-03T19:04:04.700Z,5.18
2023-04-03T19:06:33.400Z,4.60
2023-04-03T19:09:01.071Z,4.10
2023-04-03T19:11:30.084Z,4.28
2023-04-03T19:16:30.792Z,6.75
2023-04-03T19:18:57.760Z,4.88
2023-04-03T19:21:24.888Z,6.45
2023-04-03T19:23:51.694Z,5.50
2023-04-03T19:26:19.015Z,9.05
2023-04-03T19:28:48.879Z,11.85
2023-04-03T19:31:18.545Z,7.15
2023-04-03T19:33:45.616Z,5.20
2023-04-03T19:36:12.794Z,7.72
2023-04-03T19:38:40.100Z,7.20
2023-04-03T19:41:19.534Z,7.00
2023-04-03T19:43:46.888Z,4.85
2023-04-03T19:46:13.783Z,7.63
2023-04-03T19:48:40.709Z,4.78
2023-04-03T19:51:08.356Z,3.35
2023-04-03T19:53:35.664Z,5.60
2023-04-03T19:56:02.669Z,5.97
2023-04-03T19:58:30.182Z,5.93
2023-04-03T20:00:57.882Z,6.95
2023-04-03T20:03:25.579Z,6.45
2023-04-03T20:05:53.868Z,8.18
2023-04-03T20:08:21.030Z,11.98
2023-04-03T20:10:49.002Z,7.07
2023-04-03T20:13:16.108Z,6.60
2023-04-03T20:15:43.647Z,8.95
2023-04-03T20:18:15.525Z,5.25
2023-04-03T20:20:42.546Z,3.58
2023-04-03T20:23:11.547Z,6.53
2023-04-03T20:25:54.408Z,5.63
2023-04-03T20:28:25.361Z,9.18
2023-04-03T20:30:55.055Z,4.78
2023-04-03T20:33:23.681Z,5.25
2023-04-03T20:35:50.651Z,4.78
2023-04-03T20:38:18.095Z,5.60
2023-04-03T20:40:45.124Z,3.97
2023-04-03T20:43:12.654Z,6.13
2023-04-03T20:45:39.838Z,6.05
2023-04-03T20:48:07.250Z,5.97
2023-04-03T20:50:34.607Z,5.65
2023-04-03T20:53:02.308Z,4.00
2023-04-03T20:55:30.214Z,6.93
2023-04-03T20:58:01.249Z,4.50
2023-04-03T21:00:31.657Z,3.95
2023-04-03T21:02:59.729Z,5.38
2023-04-03T21:05:28.582Z,7.10
2023-04-03T21:08:33.381Z,4.22
2023-04-03T21:11:38.082Z,6.32
2023-04-03T21:14:43.136Z,5.82
2023-04-03T21:17:09.938Z,7.35
2023-04-03T21:19:43.297Z,6.65
2023-04-03T21:22:10.550Z,8.05
2023-04-03T21:24:37.791Z,6.55
2023-04-03T21:27:05.372Z,7.63
2023-04-03T21:29:32.292Z,10.02
2023-04-03T21:32:01.598Z,4.88
2023-04-03T21:34:30.125Z,7.68
2023-04-03T21:37:01.709Z,4.40
2023-04-03T21:39:29.052Z,7.82
2023-04-03T21:41:55.993Z,5.45
2023-04-03T21:44:23.431Z,5.82
2023-04-03T21:46:54.440Z,5.68
2023-04-03T21:49:25.938Z,6.20
2023-04-03T21:51:52.940Z,9.20
2023-04-03T21:54:20.691Z,5.32
2023-04-03T21:56:52.470Z,5.00
2023-04-03T21:59:19.613Z,4.95
2023-04-03T22:01:46.539Z,8.40
2023-04-03T22:04:13.594Z,5.72
2023-04-03T22:06:40.876Z,5.57
2023-04-03T22:09:08.041Z,4.57
2023-04-03T22:11:34.960Z,6.13
2023-04-03T22:14:01.986Z,6.85
2023-04-03T22:16:28.850Z,4.93
2023-04-03T22:18:59.153Z,5.25
2023-04-03T22:21:26.359Z,5.28
2023-04-03T22:23:55.636Z,4.25
2023-04-03T22:26:22.669Z,5.85
2023-04-03T22:28:49.506Z,6.88
2023-04-03T22:31:17.057Z,7.07
2023-04-03T22:33:45.556Z,5.35
2023-04-03T22:36:13.514Z,7.07
2023-04-03T22:38:44.284Z,4.18
2023-04-03T22:41:11.842Z,10.02
2023-04-03T22:43:39.471Z,6.28
2023-04-03T22:46:08.652Z,6.90
2023-04-03T22:48:36.806Z,5.03
2023-04-03T22:51:07.452Z,6.65
2023-04-03T22:53:35.569Z,6.45
2023-04-03T22:56:04.788Z,6.13
2023-04-03T22:58:31.793Z,3.92
2023-04-03T23:01:07.631Z,4.80
2023-04-03T23:03:36.441Z,3.97
2023-04-03T23:06:04.563Z,9.77
2023-04-03T23:08:32.634Z,6.22
2023-04-03T23:11:00.183Z,5.07
2023-04-03T23:13:27.973Z,4.35
2023-04-03T23:16:00.349Z,7.53
2023-04-03T23:18:31.509Z,5.22
2023-04-03T23:21:03.716Z,4.95
2023-04-03T23:23:31.229Z,7.47
2023-04-03T23:26:00.435Z,5.65
2023-04-03T23:28:28.678Z,5.95
2023-04-03T23:31:01.792Z,6.55
2023-04-03T23:33:30.712Z,5.65
2023-04-03T23:35:58.728Z,7.50
2023-04-03T23:38:26.134Z,7.05
2023-04-03T23:40:53.290Z,4.07
2023-04-03T23:43:20.147Z,4.03
2023-04-03T23:45:47.253Z,6.18
2023-04-03T23:48:14.307Z,4.00
2023-04-03T23:50:42.555Z,5.35
2023-04-03T23:53:09.776Z,6.57
2023-04-03T23:55:36.882Z,8.63
2023-04-03T23:58:03.902Z,6.85
